CheckWX is a tool to help pilots better visualize weather data.  It is not intended as a substitute for an official pre-flight weather briefing.

10:53:37 UTC

DNKA METAR
Kaduna Airport
Kaduna, Nigeria
Current

3 hours ago

DNKA 220800Z 25007KT CAVOK 27/24 Q1016 NOSIG
Observed
Sep-22 @ 08:00 UTC
Wind
  • 250° at 7 KTS
Visibility
10,000+ meters
Flight Rules
VFR
Cloud Levels
  • Clear skies
Temperature
27°C / 81°F
Dewpoint
24°C / 75°F
Heat Index
31°C / 87°F
Humidity
84%
Altimeter
30" Hg
Pressure
1015.92 hPa